Anworth Mortgage Asset Corp (ANH) Latest Bloomsberg Price


Mffais Ranking #1327 Overall / #18 Industry
Industry: Mortgage Finance

Number of Companies: 93 (Ranking #1727 Overall/#22 Industry)
Inflow: $ 8,868 (K) (Ranking #2045 Overall/#29 Industry)
Outflow: $ -9,467 (K)
Mffais Flow: $ -599 (K) (Ranking #1327 Overall/#18 Industry)


Receive a FREE weekly executive review of stocks moving into the top 10, taking the top industy spot or moving up within their industry. Sent directly to your Inbox every Saturday. Sign up today and get last week's review immediately sent to you.

We value and respect your privacy. Please read our Terms and Conditions which states our firm commitment to your privacy. Your email address will not be shared with a third party, nor will it be sold or used for purposes other than subscription for the weekly review.

Owner CPOR Shares Action Qty Chg Invested (K) Total Current Value (K)
Talkot Capital Llc 2016-09-30 1,000,000 Added More 918,945 $ 4,410 $ 4,800
Kennedy Capital Management Inc 2016-09-30 268,931 New Holding 268,931 $ 1,290 $ 1,290
Css Llc Il 2016-09-30 423,363 Added More 134,910 $ 647 $ 2,032
Hilton Capital Management Llc 2016-09-30 131,146 New Holding 131,146 $ 629 $ 629
Affinity Investment Advisors Llc 2016-09-30 48,569 New Holding 48,569 $ 233 $ 233
Emerald Acquisition Ltd 2016-09-30 87,703 Added More 39,379 $ 189 $ 420
Kbc Group Nv 2016-09-30 105,006 Added More 38,229 $ 183 $ 504
Capital Investment Advisors Llc 2016-09-30 36,890 New Holding 36,890 $ 177 $ 177
Guggenheim Capital Llc 2016-09-30 35,590 New Holding 35,590 $ 170 $ 170
Interval Partners Lp 2016-09-30 429,435 Added More 29,435 $ 141 $ 2,061
Northern Trust Corp 2016-09-30 1,118,700 Added More 28,096 $ 134 $ 5,369
Gsa Capital Partners Llp 2016-09-30 84,941 Added More 27,982 $ 134 $ 407
Sg Americas Securities Llc 2016-09-30 22,672 New Holding 22,672 $ 108 $ 108
Ellington Management Group Llc 2016-09-30 32,500 Added More 19,000 $ 91 $ 156
Indexiq Advisors Llc 2016-09-30 94,672 Added More 18,089 $ 86 $ 454
Dynamic Technology Lab Private Ltd 2016-09-30 13,105 New Holding 13,105 $ 62 $ 62
Tudor Investment Corp Et Al 2016-09-30 29,480 Added More 8,300 $ 39 $ 141
Aperio Group Llc 2016-09-30 43,867 Added More 4,711 $ 22 $ 210
Next Financial Group Inc 2016-09-30 4,810 Added More 3,810 $ 18 $ 23
Qs Investors Llc 2016-09-30 12,042 Added More 3,548 $ 17 $ 57
Van Eck Associates Corp 2016-09-30 335,858 Added More 3,276 $ 15 $ 1,612
Quantbot Technologies Lp 2016-09-30 2,790 New Holding 2,790 $ 13 $ 13
Commonwealth Bank Of Australia 2016-09-30 2,145 New Holding 2,145 $ 10 $ 10
Nwam Llc 2016-09-30 141,350 Added More 2,000 $ 9 $ 678
California State Teachers Retirement System 2016-09-30 202,178 Added More 1,400 $ 6 $ 970
Zurcher Kantonalbank Zurich Cantonalbank 2016-09-30 8,285 Added More 1,196 $ 5 $ 39
Msi Financial Services Inc 2016-09-30 8,076 Added More 1,029 $ 4 $ 38
Raymond James Financial Services Advisors Inc 2016-09-30 19,300 Added More 1,000 $ 4 $ 92
Blackrock Inc 2016-09-30 35,340 Added More 900 $ 4 $ 169
First Interstate Bank 2016-09-30 162 New Holding 162 $ 0 $ 0
Penserra Capital Management Llc 2016-09-30 1,214 Added More 139 $ 0 $ 5
American International Group Inc 2016-09-30 55,204 Added More 84 $ 0 $ 264
Ifc Holdings Incorporated Fl 2016-09-30 15,664 Added More 36 $ 0 $ 75
Hillsdale Investment Management Inc 2016-09-30 520 Added More 10 $ 0 $ 2
Bessemer Group Inc 2016-09-30 8,000 No Change 0 $ 0 $ 38
Fifth Third Bancorp 2016-09-30 1,598 No Change 0 $ 0 $ 7
Us Bancorp De 2016-09-30 5,759 No Change 0 $ 0 $ 27
Capital Guardian Trust Co 2016-09-30 2,754 No Change 0 $ 0 $ 13
New York State Common Retirement Fund 2016-09-30 95,700 No Change 0 $ 0 $ 459
Oppenheimer Co Inc 2016-09-30 58,750 No Change 0 $ 0 $ 282
Martingale Asset Management L P 2016-09-30 93,746 No Change 0 $ 0 $ 449
Teachers Advisors Inc 2016-09-30 161,464 No Change 0 $ 0 $ 775
Smithfield Trust Co 2016-09-30 2,000 No Change 0 $ 0 $ 9
Ladenburg Thalmann Financial Services Inc 2016-09-30 4,200 No Change 0 $ 0 $ 20
American Financial Group Inc 2016-09-30 1,417,950 No Change 0 $ 0 $ 6,806
Nationwide Fund Advisors 2016-09-30 65,079 No Change 0 $ 0 $ 312
Alpine Woods Capital Investors Llc 2016-09-30 17,000 No Change 0 $ 0 $ 81
Century Capital Management Llc 2016-09-30 340,987 No Change 0 $ 0 $ 1,636
First Republic Investment Management Inc 2016-09-30 14,900 No Change 0 $ 0 $ 71
Parkside Financial Bank Trust 2016-09-30 2,152 No Change 0 $ 0 $ 10
Highlander Capital Management Llc 2016-09-30 12,850 No Change 0 $ 0 $ 61
Mangrove Partners 2016-09-30 1,007,005 No Change 0 $ 0 $ 4,833
Ifp Advisors Inc 2016-09-30 104 No Change 0 $ 0 $ 0
Mufg Americas Holdings Corp 2016-09-30 436 Sold Some -224 $ -1 $ 2
Sterling Capital Management Llc 2016-09-30 144,998 Sold Some -263 $ -1 $ 695
Creative Planning 2016-09-30 14,318 Sold Some -723 $ -3 $ 68
Pnc Financial Services Group Inc 2016-09-30 0 Sold All -746 $ -3 $ 0
Advisor Group Inc 2016-09-30 5,400 Sold Some -1,000 $ -4 $ 25
Diligent Investors Llc 2016-09-30 14,935 Sold Some -1,050 $ -5 $ 71
Blackrock Investment Management Llc 2016-09-30 425,339 Sold Some -1,577 $ -7 $ 2,041
Rhumbline Advisers 2016-09-30 131,422 Sold Some -1,770 $ -8 $ 630
Tower Research Capital Llc Trc 2016-09-30 4,821 Sold Some -2,159 $ -10 $ 23
Simplex Trading Llc 2016-09-30 0 Sold All -2,200 $ -10 $ 0
Advisors Asset Management Inc 2016-09-30 5,710 Sold Some -2,872 $ -13 $ 27
Cetera Advisors Llc 2016-09-30 14,620 Sold Some -3,200 $ -15 $ 70
Strs Ohio 2016-09-30 30,300 Sold Some -3,300 $ -15 $ 145
Acrospire Investment Management Llc 2016-09-30 6,856 Sold Some -3,400 $ -16 $ 32
Legal General Group Plc 2016-09-30 14,790 Sold Some -5,471 $ -26 $ 70
Teacher Retirement System Of Texas 2016-09-30 75,301 Sold Some -8,375 $ -40 $ 361
Afam Capital Inc 2016-09-30 344,076 Sold Some -8,833 $ -42 $ 1,651
Sheaff Brock Investment Advisors Llc 2016-09-30 0 Sold All -10,200 $ -48 $ 0
Spot Trading L L C 2016-09-30 0 Sold All -10,900 $ -52 $ 0
Stifel Financial Corp 2016-09-30 0 Sold All -11,334 $ -54 $ 0
Proshare Advisors Llc 2016-09-30 0 Sold All -11,710 $ -56 $ 0
Swiss National Bank 2016-09-30 159,000 Sold Some -12,700 $ -60 $ 763
Cubist Systematic Strategies Llc 2016-09-30 0 Sold All -12,826 $ -61 $ 0
Clear Harbor Asset Management Llc 2016-09-30 720,440 Sold Some -14,480 $ -69 $ 3,458
Barings Llc 2016-09-30 0 Sold All -18,100 $ -86 $ 0
Deere Co 2016-09-30 0 Sold All -28,482 $ -136 $ 0
Doheny Asset Management Ca 2016-09-30 349,600 Sold Some -30,000 $ -144 $ 1,678
Systematic Financial Management Lp 2016-09-30 300,515 Sold Some -33,415 $ -160 $ 1,442
Brandywine Global Investment Management Llc 2016-09-30 1,081,229 Sold Some -36,809 $ -176 $ 5,189
Clarivest Asset Management Llc 2016-09-30 145,713 Sold Some -36,900 $ -177 $ 699
Kcg Holdings Inc 2016-09-30 15,501 Sold Some -37,852 $ -181 $ 74
Quantitative Systematic Strategies Llc 2016-09-30 22,571 Sold Some -42,151 $ -202 $ 108
Deprince Race Zollo Inc 2016-09-30 0 Sold All -55,000 $ -264 $ 0
Secor Capital Advisors Lp 2016-09-30 198,468 Sold Some -108,056 $ -518 $ 952
Parametric Portfolio Associates Llc 2016-09-30 633,157 Sold Some -120,877 $ -580 $ 3,039
Menta Capital Llc 2016-09-30 13,010 Sold Some -154,610 $ -742 $ 62
A R T Advisors Llc 2016-09-30 0 Sold All -170,210 $ -817 $ 0
Thrivent Financial For Lutherans 2016-09-30 403,360 Sold Some -286,800 $ -1,376 $ 1,936
Springhouse Capital Management Lp 2016-09-30 0 Sold All -340,910 $ -1,636 $ 0
Algebris Investments Uk Llp 2016-09-30 0 Sold All -340,987 $ -1,636 $ 0